Time;durP1;ratioP1;P1;durP2;ratioP2;P2;SDS_P1;SDS_P2;PMS_P1;PMS_P2;Temp;Humidity;BMP_temperature;BMP_pressure;BME280_temperature;BME280_humidity;BME280_pressure;Samples;Min_cycle;Max_cycle;Signal;HPM_P1;HPM_P2
2023/10/26 00:01:18;;;;;;;1.10;0.80;;;;;;;22.10;47.41;99509.28;5037422;28;20037;-49
2023/10/26 00:03:43;;;;;;;1.27;1.10;;;;;;;22.10;47.35;99513.88;5037918;28;20025;-48
2023/10/26 00:06:09;;;;;;;0.98;0.90;;;;;;;21.89;47.57;99485.34;5036363;28;20060;-48
2023/10/26 00:08:34;;;;;;;0.95;0.80;;;;;;;22.08;47.53;99514.09;5035997;28;20068;-46
2023/10/26 00:11:03;;;;;;;0.80;0.80;;;;;;;22.05;47.67;99503.72;5035941;28;20045;-46
2023/10/26 00:13:28;;;;;;;1.95;1.15;;;;;;;22.08;47.53;99513.25;5033833;28;20040;-46
2023/10/26 00:15:54;;;;;;;0.90;0.85;;;;;;;21.93;47.54;99490.09;5031251;28;20058;-47
2023/10/26 00:18:19;;;;;;;1.00;0.90;;;;;;;22.09;47.63;99513.06;5039091;28;20044;-48
2023/10/26 00:20:45;;;;;;;1.42;0.90;;;;;;;22.10;47.33;99517.41;5041053;28;20033;-47
2023/10/26 00:23:10;;;;;;;1.10;0.77;;;;;;;22.10;47.45;99520.13;5032612;28;20059;-47
2023/10/26 00:25:36;;;;;;;1.02;0.93;;;;;;;22.08;47.34;99519.50;5038423;28;20049;-48
2023/10/26 00:28:01;;;;;;;0.80;0.80;;;;;;;22.08;47.17;99524.91;5037586;28;20034;-49
2023/10/26 00:30:26;;;;;;;0.70;0.70;;;;;;;22.09;47.14;99528.44;5037300;28;20048;-46
2023/10/26 00:32:51;;;;;;;1.13;1.00;;;;;;;22.08;47.02;99540.31;5038187;28;20045;-48
2023/10/26 00:35:17;;;;;;;1.30;1.10;;;;;;;22.07;47.31;99538.69;5033345;28;20040;-48
2023/10/26 00:37:42;;;;;;;1.60;0.90;;;;;;;22.05;47.32;99536.19;5033638;28;20040;-47
2023/10/26 00:40:08;;;;;;;1.33;1.00;;;;;;;22.04;47.14;99542.66;5038086;28;20041;-47
2023/10/26 00:42:33;;;;;;;1.30;1.00;;;;;;;22.02;47.32;99541.22;5022967;28;20361;-47
2023/10/26 00:44:58;;;;;;;1.15;1.05;;;;;;;22.02;47.33;99539.34;5037811;28;20033;-46
2023/10/26 00:47:25;;;;;;;1.40;0.90;;;;;;;22.01;47.40;99545.00;5034192;28;20037;-46
2023/10/26 00:49:51;;;;;;;1.35;0.80;;;;;;;22.00;47.13;99546.84;5036880;28;20281;-46
2023/10/26 00:52:16;;;;;;;1.02;0.85;;;;;;;21.98;47.22;99546.25;5037110;28;20064;-51
2023/10/26 00:54:42;;;;;;;1.00;0.90;;;;;;;21.95;47.55;99543.97;5015842;28;20034;-47
2023/10/26 00:57:08;;;;;;;2.33;1.55;;;;;;;21.91;47.37;99549.00;5016724;28;20483;-46
2023/10/26 00:59:33;;;;;;;3.80;0.98;;;;;;;21.92;47.36;99545.28;5037411;28;20034;-46
2023/10/26 01:02:00;;;;;;;1.13;1.02;;;;;;;21.91;47.17;99549.00;5017850;28;20033;-46
2023/10/26 01:04:26;;;;;;;1.65;0.70;;;;;;;21.88;47.41;99544.06;5037501;28;20545;-48
2023/10/26 01:06:51;;;;;;;1.75;1.45;;;;;;;21.69;47.26;99520.69;5020622;28;20331;-46
2023/10/26 01:09:16;;;;;;;1.77;1.00;;;;;;;21.82;47.39;99542.22;5035125;28;20061;-45
2023/10/26 01:11:42;;;;;;;1.02;0.82;;;;;;;21.78;47.71;99546.41;5032906;28;20368;-46
2023/10/26 01:14:08;;;;;;;1.52;1.30;;;;;;;21.75;47.89;99538.75;5036930;28;20127;-49
2023/10/26 01:16:34;;;;;;;0.80;0.80;;;;;;;21.73;47.89;99550.84;5035351;28;20071;-47
2023/10/26 01:19:03;;;;;;;0.88;0.88;;;;;;;21.71;47.90;99540.25;5032527;28;20507;-47
2023/10/26 01:21:29;;;;;;;2.05;0.98;;;;;;;21.69;48.05;99545.03;5041978;28;20056;-47
2023/10/26 01:23:55;;;;;;;1.20;1.10;;;;;;;21.59;47.69;99533.88;5037264;28;20029;-48
2023/10/26 01:26:20;;;;;;;1.10;0.90;;;;;;;21.64;48.03;99543.00;5036080;28;20541;-45
2023/10/26 01:28:46;;;;;;;1.25;0.90;;;;;;;21.40;47.85;99509.44;5036960;28;20557;-48
2023/10/26 01:31:15;;;;;;;1.15;0.93;;;;;;;21.62;47.73;99550.50;5036163;28;20029;-50
2023/10/26 01:33:40;;;;;;;1.23;1.05;;;;;;;21.56;47.65;99550.53;5014888;28;20040;-46
2023/10/26 01:36:06;;;;;;;2.33;1.00;;;;;;;21.56;48.00;99554.06;5029308;28;20030;-45
2023/10/26 01:38:31;;;;;;;1.00;0.80;;;;;;;21.52;48.12;99554.72;5031972;28;20112;-47
2023/10/26 01:40:56;;;;;;;1.00;0.95;;;;;;;21.57;48.08;99563.00;5034503;28;20051;-47
2023/10/26 01:43:24;;;;;;;1.35;1.00;;;;;;;21.55;48.04;99565.94;5041828;28;20064;-46
2023/10/26 01:45:49;;;;;;;1.50;1.40;;;;;;;21.54;48.07;99564.28;5032449;28;20030;-46
2023/10/26 01:48:14;;;;;;;1.08;0.80;;;;;;;21.53;48.02;99565.31;5034702;28;20071;-50
2023/10/26 01:50:39;;;;;;;1.08;1.00;;;;;;;21.51;48.00;99563.91;5034701;28;20041;-47
2023/10/26 01:53:05;;;;;;;1.25;0.80;;;;;;;21.47;48.22;99571.63;5036184;28;20037;-46
2023/10/26 01:55:30;;;;;;;1.00;0.93;;;;;;;21.45;47.92;99574.56;5035536;28;20479;-46
2023/10/26 01:57:57;;;;;;;1.05;0.93;;;;;;;21.43;48.03;99575.78;5038826;28;20061;-46
2023/10/26 02:00:22;;;;;;;1.70;1.35;;;;;;;21.41;48.34;99586.84;5033248;28;20052;-46
2023/10/26 02:02:49;;;;;;;2.05;0.95;;;;;;;21.41;48.19;99591.44;5031593;28;20499;-46
2023/10/26 02:05:15;;;;;;;1.02;0.93;;;;;;;21.39;48.44;99585.38;5037031;28;20041;-46
2023/10/26 02:07:40;;;;;;;1.95;0.90;;;;;;;21.37;48.30;99592.91;5037069;28;20021;-48
2023/10/26 02:10:06;;;;;;;1.05;0.90;;;;;;;21.35;48.50;99593.09;5031576;28;20049;-47
2023/10/26 02:12:31;;;;;;;1.50;1.00;;;;;;;21.29;48.43;99585.00;5035021;28;20052;-48
2023/10/26 02:14:56;;;;;;;1.00;0.85;;;;;;;21.31;48.30;99591.84;5035101;28;20488;-47
2023/10/26 02:17:21;;;;;;;1.52;1.00;;;;;;;21.30;48.54;99603.72;5031545;28;20045;-47
2023/10/26 02:19:47;;;;;;;1.05;0.93;;;;;;;21.28;48.55;99604.97;5037642;28;20156;-46
2023/10/26 02:22:14;;;;;;;0.80;0.80;;;;;;;21.25;48.37;99600.00;5030059;28;20038;-45
2023/10/26 02:24:41;;;;;;;1.80;1.00;;;;;;;21.23;48.34;99602.91;5033200;28;20025;-47
2023/10/26 02:27:06;;;;;;;0.80;0.80;;;;;;;21.22;48.52;99602.06;5034051;28;20045;-47
2023/10/26 02:29:31;;;;;;;1.10;1.00;;;;;;;21.20;48.49;99603.34;5036531;28;20048;-46
2023/10/26 02:31:57;;;;;;;1.17;0.90;;;;;;;21.19;48.59;99602.50;5036615;28;20373;-47
2023/10/26 02:34:22;;;;;;;1.35;1.00;;;;;;;21.18;48.44;99598.16;5039668;28;20025;-48
2023/10/26 02:36:47;;;;;;;0.80;0.80;;;;;;;21.16;48.77;99602.94;5033464;28;20065;-46
2023/10/26 02:39:12;;;;;;;1.10;1.00;;;;;;;20.98;48.63;99581.19;5031070;28;20064;-47
2023/10/26 02:41:38;;;;;;;1.10;0.93;;;;;;;21.13;48.80;99605.25;5033598;28;20486;-47
2023/10/26 02:44:03;;;;;;;1.08;0.90;;;;;;;21.12;48.58;99595.50;5029821;28;20060;-47
2023/10/26 02:46:28;;;;;;;0.70;0.70;;;;;;;21.10;48.98;99598.38;5033401;28;20025;-47
2023/10/26 02:48:54;;;;;;;1.10;1.00;;;;;;;21.09;48.79;99594.03;5034808;28;20392;-47
2023/10/26 02:51:19;;;;;;;1.10;1.00;;;;;;;21.06;48.96;99599.84;5035578;28;20036;-46
2023/10/26 02:53:44;;;;;;;0.80;0.80;;;;;;;21.04;48.72;99595.72;5036241;28;20057;-47
2023/10/26 02:56:10;;;;;;;1.65;1.10;;;;;;;21.02;48.96;99592.41;5035565;28;20040;-47
2023/10/26 02:58:35;;;;;;;0.82;0.82;;;;;;;20.99;48.82;99584.75;5032959;28;20086;-48
2023/10/26 03:01:00;;;;;;;1.25;1.15;;;;;;;20.88;48.96;99568.13;5030957;28;20105;-48
2023/10/26 03:03:25;;;;;;;1.83;0.98;;;;;;;20.96;48.80;99580.59;5032079;28;20091;-50
2023/10/26 03:05:51;;;;;;;1.10;1.00;;;;;;;20.93;49.04;99581.81;5016944;28;20112;-46
2023/10/26 03:08:17;;;;;;;0.70;0.70;;;;;;;20.91;49.17;99583.94;5034770;28;20365;-47
2023/10/26 03:10:42;;;;;;;1.48;0.98;;;;;;;20.93;48.93;99595.34;5038097;28;20072;-47
2023/10/26 03:13:07;;;;;;;0.80;0.80;;;;;;;20.93;48.91;99594.50;5034223;28;20080;-49
2023/10/26 03:15:32;;;;;;;1.10;1.00;;;;;;;20.92;48.98;99592.88;5032907;28;20061;-46
2023/10/26 03:17:58;;;;;;;0.80;0.80;;;;;;;20.91;49.11;99597.44;5033702;28;20030;-46
2023/10/26 03:20:23;;;;;;;1.50;1.10;;;;;;;20.90;49.02;99590.38;5033460;28;20186;-46
2023/10/26 03:22:48;;;;;;;0.85;0.75;;;;;;;20.86;48.95;99594.56;5032469;28;20041;-48
2023/10/26 03:25:15;;;;;;;1.13;1.02;;;;;;;20.87;49.36;99604.31;5032511;28;20550;-47
2023/10/26 03:27:40;;;;;;;1.00;0.90;;;;;;;20.70;49.04;99576.94;5031628;28;20053;-47
2023/10/26 03:30:07;;;;;;;1.00;1.00;;;;;;;20.83;49.07;99603.06;5043892;28;20049;-47
2023/10/26 03:32:32;;;;;;;1.10;1.00;;;;;;;20.82;49.11;99609.53;5040381;28;20025;-48
2023/10/26 03:34:58;;;;;;;1.10;0.98;;;;;;;20.80;49.24;99598.09;5039646;28;20085;-46
2023/10/26 03:37:23;;;;;;;1.02;0.85;;;;;;;20.76;49.30;99599.56;5037605;28;20026;-46
2023/10/26 03:39:49;;;;;;;1.20;1.05;;;;;;;20.78;49.13;99593.97;5037610;28;20045;-47
2023/10/26 03:42:14;;;;;;;1.25;1.10;;;;;;;20.74;49.54;99593.56;5037106;28;20125;-46
2023/10/26 03:44:39;;;;;;;1.02;0.80;;;;;;;20.75;49.24;99600.59;5036000;28;20115;-47
2023/10/26 03:47:06;;;;;;;1.92;1.20;;;;;;;20.74;49.60;99601.66;5025124;28;20018;-46
2023/10/26 03:49:31;;;;;;;0.80;0.80;;;;;;;20.72;49.92;99611.81;5032271;28;20045;-47
2023/10/26 03:51:56;;;;;;;1.20;1.10;;;;;;;20.71;49.48;99602.91;5041476;28;20059;-48
2023/10/26 03:54:22;;;;;;;1.58;1.10;;;;;;;20.70;49.31;99600.41;5040046;28;20413;-45
2023/10/26 03:56:47;;;;;;;1.30;1.10;;;;;;;20.69;49.27;99604.16;5039584;28;20061;-47
2023/10/26 03:59:12;;;;;;;1.02;0.93;;;;;;;20.68;49.35;99607.88;5041209;28;20025;-47
2023/10/26 04:01:37;;;;;;;1.10;1.00;;;;;;;20.66;49.49;99600.00;5037895;28;20034;-46
2023/10/26 04:04:03;;;;;;;2.47;1.10;;;;;;;20.63;49.39;99594.19;5035087;28;20441;-49
2023/10/26 04:06:32;;;;;;;2.10;1.10;;;;;;;20.63;49.64;99600.41;5035450;28;20030;-46
2023/10/26 04:08:57;;;;;;;1.30;1.20;;;;;;;20.62;49.65;99592.53;5038017;28;20036;-47
2023/10/26 04:11:24;;;;;;;1.65;1.00;;;;;;;20.61;49.41;99607.09;5034885;28;20479;-46
2023/10/26 04:13:49;;;;;;;1.27;1.10;;;;;;;20.60;49.60;99603.56;5037880;28;20072;-48
2023/10/26 04:16:15;;;;;;;2.05;1.10;;;;;;;20.59;49.71;99601.88;5037645;28;20033;-46
2023/10/26 04:18:40;;;;;;;1.58;1.33;;;;;;;20.58;49.67;99604.81;5039009;28;20025;-46
2023/10/26 04:21:06;;;;;;;0.98;0.90;;;;;;;20.58;49.64;99599.41;5037446;28;20025;-50
2023/10/26 04:23:31;;;;;;;1.20;1.10;;;;;;;20.56;49.95;99587.97;5033553;28;20040;-46
2023/10/26 04:25:56;;;;;;;1.23;1.13;;;;;;;20.54;50.06;99576.56;5038074;28;20148;-47
2023/10/26 04:28:22;;;;;;;1.40;1.10;;;;;;;20.55;49.68;99576.34;5032351;28;20038;-47
2023/10/26 04:30:48;;;;;;;1.15;1.00;;;;;;;20.54;49.98;99582.78;5035364;28;20037;-47
2023/10/26 04:33:14;;;;;;;1.15;0.88;;;;;;;20.53;49.72;99585.72;5042148;28;20057;-46
2023/10/26 04:35:40;;;;;;;1.42;1.33;;;;;;;20.52;49.83;99575.94;5034403;28;20034;-47
2023/10/26 04:38:08;;;;;;;0.88;0.88;;;;;;;20.52;50.11;99581.34;5036950;28;20028;-47
2023/10/26 04:40:33;;;;;;;1.17;1.08;;;;;;;20.52;50.25;99586.75;5037158;28;20034;-47
2023/10/26 04:42:58;;;;;;;1.30;1.20;;;;;;;20.52;50.06;99581.34;5038338;28;20218;-46
2023/10/26 04:45:24;;;;;;;1.90;1.00;;;;;;;20.51;50.21;99580.50;5036614;28;20030;-47
2023/10/26 04:47:49;;;;;;;2.13;1.35;;;;;;;20.51;50.21;99580.50;5028623;28;20036;-47
2023/10/26 04:50:14;;;;;;;1.23;1.13;;;;;;;20.51;50.31;99576.97;5036489;28;20033;-49
2023/10/26 04:52:40;;;;;;;1.20;1.10;;;;;;;20.50;50.12;99584.25;5029414;28;20038;-46
2023/10/26 04:55:05;;;;;;;3.13;0.90;;;;;;;20.50;50.43;99584.25;5038715;28;20033;-46
2023/10/26 04:57:31;;;;;;;2.10;0.93;;;;;;;20.49;50.51;99582.59;5025384;28;20108;-48
2023/10/26 04:59:56;;;;;;;1.08;0.98;;;;;;;20.50;50.68;99583.44;5033209;28;20600;-49
2023/10/26 05:02:21;;;;;;;2.15;0.80;;;;;;;20.49;50.71;99588.00;5035247;28;20030;-46
2023/10/26 05:04:46;;;;;;;1.52;1.02;;;;;;;20.42;50.60;99581.75;5034909;28;20036;-46
2023/10/26 05:07:12;;;;;;;1.40;1.27;;;;;;;20.47;50.83;99593.59;5030953;28;20032;-47
2023/10/26 05:09:37;;;;;;;1.08;0.98;;;;;;;20.47;50.63;99593.59;5037461;28;20643;-47
2023/10/26 05:12:03;;;;;;;1.48;1.05;;;;;;;20.37;50.83;99574.28;5030162;28;20036;-47
2023/10/26 05:14:28;;;;;;;1.20;0.93;;;;;;;20.46;50.56;99591.91;5037516;28;20029;-47
2023/10/26 05:16:53;;;;;;;0.95;0.85;;;;;;;20.45;50.67;99586.75;5036148;28;20041;-47
2023/10/26 05:19:18;;;;;;;1.50;1.15;;;;;;;20.44;51.02;99588.59;5038529;28;20025;-47
2023/10/26 05:21:44;;;;;;;1.23;1.00;;;;;;;20.43;50.93;99589.66;5038816;28;20490;-47
2023/10/26 05:24:09;;;;;;;1.40;1.25;;;;;;;20.42;51.08;99585.28;5033804;28;20032;-46
2023/10/26 05:26:34;;;;;;;2.30;1.00;;;;;;;20.33;50.62;99569.53;5034387;28;20096;-46
2023/10/26 05:29:02;;;;;;;2.65;0.90;;;;;;;20.41;51.06;99578.22;5031959;28;20092;-47
2023/10/26 05:31:27;;;;;;;1.23;0.85;;;;;;;20.40;50.58;99576.56;5013788;28;21007;-46
2023/10/26 05:33:52;;;;;;;2.08;1.10;;;;;;;20.41;51.01;99578.22;5027305;28;20037;-46
2023/10/26 05:36:18;;;;;;;1.15;0.80;;;;;;;20.40;50.74;99573.88;5034430;28;20034;-48
2023/10/26 05:38:43;;;;;;;1.02;0.93;;;;;;;20.39;51.01;99574.06;5036105;28;20033;-47
2023/10/26 05:41:08;;;;;;;0.85;0.85;;;;;;;20.39;51.06;99568.66;5038489;28;20097;-47
2023/10/26 05:43:33;;;;;;;1.02;0.82;;;;;;;20.37;50.76;99566.19;5038200;28;20048;-48
2023/10/26 05:46:03;;;;;;;1.05;0.95;;;;;;;20.36;51.15;99564.53;5035590;28;20026;-49
2023/10/26 05:48:30;;;;;;;1.20;0.95;;;;;;;20.30;50.73;99551.88;5038086;28;20021;-47
2023/10/26 05:50:55;;;;;;;1.10;0.98;;;;;;;20.34;50.83;99554.97;5034279;28;20017;-48
2023/10/26 05:53:20;;;;;;;1.13;0.93;;;;;;;20.32;51.29;99543.56;5035966;28;20041;-47
2023/10/26 05:55:56;;;;;;;1.20;1.02;;;;;;;20.33;51.05;99550.63;5038465;28;20029;-47
2023/10/26 05:58:21;;;;;;;1.20;1.05;;;;;;;20.33;51.00;99553.31;5036242;28;20025;-46
2023/10/26 06:00:46;;;;;;;1.90;1.13;;;;;;;20.32;50.98;99557.91;5037797;28;20033;-47
2023/10/26 06:03:12;;;;;;;1.92;0.90;;;;;;;20.30;51.45;99554.56;5032921;28;20393;-47
2023/10/26 06:05:37;;;;;;;2.15;1.08;;;;;;;20.30;51.22;99557.25;5035188;28;20076;-49
2023/10/26 06:08:02;;;;;;;2.28;1.20;;;;;;;20.31;51.56;99560.81;5037389;28;20082;-48
2023/10/26 06:10:28;;;;;;;0.90;0.90;;;;;;;20.31;51.50;99572.44;5032603;28;20076;-51
2023/10/26 06:12:53;;;;;;;2.80;0.90;;;;;;;20.30;51.58;99568.06;5025738;28;20021;-48
2023/10/26 06:15:18;;;;;;;2.13;1.63;;;;;;;20.30;51.24;99567.22;5033193;28;20022;-47
2023/10/26 06:17:43;;;;;;;0.85;0.85;;;;;;;20.29;51.09;99561.00;5032020;28;20128;-50
2023/10/26 06:20:09;;;;;;;2.25;1.13;;;;;;;20.28;51.16;99562.06;5025630;28;20022;-47
2023/10/26 06:22:35;;;;;;;1.52;1.08;;;;;;;20.28;51.55;99563.94;5037061;28;20044;-48
2023/10/26 06:25:00;;;;;;;1.67;1.10;;;;;;;20.28;51.43;99572.03;5036872;28;20018;-49
2023/10/26 06:27:25;;;;;;;1.65;1.20;;;;;;;20.20;51.45;99564.97;5034660;28;20104;-48
2023/10/26 06:29:51;;;;;;;1.45;0.90;;;;;;;20.25;51.53;99578.66;5032489;28;20030;-47
2023/10/26 06:32:17;;;;;;;1.20;0.80;;;;;;;20.25;51.37;99578.66;5032148;28;20034;-49
2023/10/26 06:34:43;;;;;;;1.92;1.48;;;;;;;20.25;51.39;99580.53;5033456;28;20037;-50
2023/10/26 06:37:09;;;;;;;1.40;0.98;;;;;;;20.22;51.18;99581.81;5036087;28;20049;-51
2023/10/26 06:39:34;;;;;;;1.88;1.00;;;;;;;20.23;51.43;99581.56;5034951;28;20029;-52
2023/10/26 06:42:00;;;;;;;2.00;1.00;;;;;;;20.23;51.05;99591.56;5032313;28;20040;-47
2023/10/26 06:44:25;;;;;;;3.45;1.23;;;;;;;20.22;51.12;99585.31;5037079;28;20036;-47
2023/10/26 06:46:50;;;;;;;1.17;1.00;;;;;;;20.22;51.30;99595.28;5033541;28;20079;-49
2023/10/26 06:49:15;;;;;;;1.13;1.00;;;;;;;20.22;51.40;99587.19;5021402;28;20025;-47
2023/10/26 06:51:41;;;;;;;1.42;1.10;;;;;;;20.19;51.00;99591.13;5037629;28;20087;-49
2023/10/26 06:54:06;;;;;;;1.35;1.02;;;;;;;20.19;51.27;99583.03;5035026;28;20064;-52
2023/10/26 06:56:31;;;;;;;2.03;1.33;;;;;;;20.19;51.22;99587.59;5035058;28;20029;-50
2023/10/26 06:58:57;;;;;;;1.73;1.15;;;;;;;20.18;51.09;99577.84;5029821;28;20037;-48
2023/10/26 07:01:22;;;;;;;1.77;1.00;;;;;;;20.17;51.66;99579.69;5029004;28;20236;-48
2023/10/26 07:03:49;;;;;;;1.25;1.00;;;;;;;20.17;51.58;99581.56;5037023;28;20045;-49
2023/10/26 07:06:14;;;;;;;0.85;0.82;;;;;;;20.14;51.48;99573.91;5017262;28;20021;-51
2023/10/26 07:08:39;;;;;;;1.20;1.10;;;;;;;20.15;51.13;99565.59;5019629;28;20095;-50
2023/10/26 07:11:07;;;;;;;1.10;0.93;;;;;;;20.08;51.16;99558.53;5032323;28;20057;-46
2023/10/26 07:13:33;;;;;;;3.10;1.38;;;;;;;20.15;51.35;99572.88;5014222;28;20033;-46
2023/10/26 07:16:03;;;;;;;1.30;1.20;;;;;;;20.14;51.47;99582.00;5034710;28;20044;-50
2023/10/26 07:18:29;;;;;;;2.35;1.00;;;;;;;20.13;51.57;99578.47;5033720;28;20105;-50
2023/10/26 07:20:54;;;;;;;1.27;1.10;;;;;;;20.13;51.63;99575.75;5031869;28;20025;-46
2023/10/26 07:23:19;;;;;;;1.48;1.10;;;;;;;20.13;51.76;99577.63;5029827;28;20021;-48
2023/10/26 07:25:45;;;;;;;1.30;1.20;;;;;;;20.13;51.48;99577.63;5032776;28;20060;-47
2023/10/26 07:28:11;;;;;;;1.00;0.90;;;;;;;20.14;51.79;99580.13;5036664;28;20033;-47
2023/10/26 07:30:41;;;;;;;1.23;1.10;;;;;;;20.06;51.63;99574.97;5034406;28;20029;-47
2023/10/26 07:33:06;;;;;;;2.35;1.20;;;;;;;19.96;51.59;99553.81;5034822;28;20026;-51
2023/10/26 07:35:38;;;;;;;1.30;1.10;;;;;;;20.13;51.63;99583.84;5026503;28;20419;-48
2023/10/26 07:38:04;;;;;;;1.45;1.27;;;;;;;20.12;51.48;99573.28;5033729;28;20044;-48
2023/10/26 07:40:29;;;;;;;1.50;1.20;;;;;;;20.12;51.16;99570.59;5035456;28;20033;-47
2023/10/26 07:42:54;;;;;;;4.25;1.30;;;;;;;20.09;51.41;99571.00;5033527;28;20515;-48
2023/10/26 07:45:19;;;;;;;2.15;1.48;;;;;;;20.11;51.46;99574.31;5033639;28;20018;-47
2023/10/26 07:47:45;;;;;;;1.30;1.20;;;;;;;20.09;51.22;99571.84;5038728;28;20076;-47
2023/10/26 07:50:11;;;;;;;1.75;1.55;;;;;;;20.08;51.32;99570.16;5034149;28;20173;-47
2023/10/26 07:52:36;;;;;;;2.38;1.85;;;;;;;20.08;51.40;99572.88;5033259;28;20043;-46
2023/10/26 07:55:02;;;;;;;1.55;1.40;;;;;;;20.08;51.34;99580.13;5033772;28;20053;-47
2023/10/26 07:57:27;;;;;;;1.77;1.60;;;;;;;20.07;50.97;99581.19;5032878;28;20033;-49
2023/10/26 07:59:52;;;;;;;2.92;1.58;;;;;;;20.06;51.23;99588.44;5017180;28;20033;-47
2023/10/26 08:02:17;;;;;;;1.42;1.33;;;;;;;20.06;51.26;99587.63;5033323;28;20132;-48
2023/10/26 08:04:43;;;;;;;1.60;1.50;;;;;;;20.05;51.27;99594.03;5027750;28;20050;-49
2023/10/26 08:07:08;;;;;;;2.28;1.50;;;;;;;20.04;51.06;99593.19;5029968;28;20033;-51
2023/10/26 08:09:34;;;;;;;1.75;1.55;;;;;;;20.04;51.27;99595.06;5036540;28;20096;-48
2023/10/26 08:12:00;;;;;;;2.35;1.60;;;;;;;20.02;50.92;99595.28;5027213;28;20037;-50
2023/10/26 08:14:27;;;;;;;2.45;1.30;;;;;;;20.01;51.01;99590.94;5036072;28;20037;-49
2023/10/26 08:16:52;;;;;;;1.73;1.30;;;;;;;20.02;51.23;99603.38;5036429;28;20017;-46
2023/10/26 08:19:18;;;;;;;3.13;1.23;;;;;;;20.01;51.12;99601.72;5036225;28;20034;-49
2023/10/26 08:21:43;;;;;;;1.88;1.55;;;;;;;20.01;51.18;99608.97;5035256;28;20499;-48
2023/10/26 08:24:08;;;;;;;1.27;1.17;;;;;;;20.00;50.96;99601.91;5034209;28;20040;-47
2023/10/26 08:26:34;;;;;;;1.58;1.20;;;;;;;20.00;51.21;99601.91;5032968;28;20059;-46
2023/10/26 08:28:59;;;;;;;2.75;1.10;;;;;;;19.95;51.09;99592.59;5032207;28;20515;-48
2023/10/26 08:31:24;;;;;;;2.38;1.17;;;;;;;20.00;51.06;99600.06;5035755;28;20038;-48
2023/10/26 08:33:50;;;;;;;1.77;1.27;;;;;;;19.99;51.24;99590.31;5040596;28;20116;-48
2023/10/26 08:36:15;;;;;;;1.42;1.33;;;;;;;19.99;51.61;99601.09;5032371;28;20523;-51
2023/10/26 08:38:41;;;;;;;1.65;1.08;;;;;;;19.98;51.46;99604.84;5036630;28;20030;-48
2023/10/26 08:41:11;;;;;;;1.13;1.02;;;;;;;19.96;51.55;99605.06;5034934;28;20041;-49
2023/10/26 08:43:36;;;;;;;2.03;1.50;;;;;;;19.97;51.51;99608.59;5033529;28;20041;-49
2023/10/26 08:46:02;;;;;;;2.42;1.20;;;;;;;19.97;51.47;99608.59;5030641;28;20084;-47
2023/10/26 08:48:30;;;;;;;1.38;1.13;;;;;;;19.97;51.65;99614.81;5033738;28;20255;-50
2023/10/26 08:50:55;;;;;;;1.45;1.13;;;;;;;19.90;51.40;99603.16;5034512;28;20052;-48
2023/10/26 08:53:20;;;;;;;3.65;1.77;;;;;;;19.97;51.66;99612.09;5037710;28;20042;-46
2023/10/26 08:55:52;;;;;;;2.10;1.48;;;;;;;19.97;51.57;99614.81;5035482;28;20034;-47
2023/10/26 08:58:20;;;;;;;1.50;1.40;;;;;;;19.97;51.66;99611.28;5037252;28;20095;-50
2023/10/26 09:00:45;;;;;;;1.40;1.30;;;;;;;19.97;51.28;99613.97;5037480;28;20060;-48
2023/10/26 09:03:10;;;;;;;1.77;1.48;;;;;;;19.81;51.64;99582.00;5031833;28;20038;-47
2023/10/26 09:05:55;;;;;;;1.75;1.65;;;;;;;19.96;51.43;99607.75;5035819;28;20036;-47
2023/10/26 09:08:27;;;;;;;2.15;1.30;;;;;;;19.94;51.46;99609.81;5032665;28;20037;-47
2023/10/26 09:10:52;;;;;;;1.58;1.48;;;;;;;19.86;51.61;99598.41;5040281;28;20504;-50
2023/10/26 09:13:28;;;;;;;1.42;1.33;;;;;;;19.95;51.39;99616.84;5036997;28;20069;-49
2023/10/26 09:15:58;;;;;;;2.13;1.48;;;;;;;19.96;51.56;99620.38;5036302;28;20037;-49
2023/10/26 09:18:25;;;;;;;1.75;1.42;;;;;;;19.96;51.69;99612.28;5035323;28;20092;-49
2023/10/26 09:21:04;;;;;;;3.38;1.50;;;;;;;19.95;51.87;99616.03;5037398;28;20120;-47
2023/10/26 09:23:31;;;;;;;1.30;1.20;;;;;;;19.96;51.29;99621.25;5029818;28;20065;-49
2023/10/26 09:26:04;;;;;;;1.65;1.40;;;;;;;19.95;51.33;99616.84;5017572;28;20021;-48
2023/10/26 09:28:50;;;;;;;2.10;1.60;;;;;;;19.96;51.59;99625.78;5037063;28;20029;-48
2023/10/26 09:31:16;;;;;;;1.55;1.45;;;;;;;19.96;51.73;99623.94;5035397;28;20243;-47
2023/10/26 09:33:41;;;;;;;6.10;1.40;;;;;;;19.97;51.52;99617.50;5036441;28;20073;-49
2023/10/26 09:36:12;;;;;;;1.48;1.38;;;;;;;19.95;51.94;99613.34;5014714;28;20030;-49
2023/10/26 09:38:37;;;;;;;1.60;1.50;;;;;;;19.96;51.58;99606.91;5036164;28;20037;-48
2023/10/26 09:41:05;;;;;;;1.52;1.40;;;;;;;20.00;51.60;99610.00;5035471;28;20033;-48
2023/10/26 09:43:30;;;;;;;1.70;1.50;;;;;;;20.01;51.84;99609.81;5036586;28;20064;-48
2023/10/26 09:45:56;;;;;;;1.52;1.25;;;;;;;20.04;52.03;99612.09;5035044;28;20275;-49
2023/10/26 09:48:22;;;;;;;2.13;1.50;;;;;;;19.98;51.79;99600.28;5024843;28;20068;-48
2023/10/26 09:50:48;;;;;;;1.55;1.45;;;;;;;20.06;51.58;99623.53;5029369;28;20025;-47
2023/10/26 09:53:14;;;;;;;1.80;1.67;;;;;;;19.91;51.62;99591.34;5022949;28;20056;-50
2023/10/26 09:55:43;;;;;;;1.60;1.40;;;;;;;20.08;51.73;99616.03;5024175;28;20065;-49
2023/10/26 09:58:10;;;;;;;1.50;1.38;;;;;;;20.13;51.68;99610.00;5012550;28;20112;-47
2023/10/26 10:00:36;;;;;;;2.00;1.80;;;;;;;20.15;51.51;99607.94;5036848;28;20037;-49
2023/10/26 10:03:12;;;;;;;1.65;1.55;;;;;;;20.17;51.58;99612.09;5032936;28;20033;-47
2023/10/26 10:05:39;;;;;;;1.90;1.35;;;;;;;20.19;51.66;99612.72;5036599;28;20044;-47
2023/10/26 10:08:05;;;;;;;3.00;1.90;;;;;;;20.22;51.53;99616.88;5033794;28;20125;-51
2023/10/26 10:10:30;;;;;;;2.20;1.52;;;;;;;20.25;51.09;99613.75;5032277;28;20677;-50
2023/10/26 10:12:55;;;;;;;1.77;1.42;;;;;;;20.27;51.20;99617.09;5029704;28;20045;-48
2023/10/26 10:15:34;;;;;;;1.50;1.40;;;;;;;20.29;51.52;99617.69;5034330;28;20037;-48
2023/10/26 10:18:01;;;;;;;2.08;1.80;;;;;;;20.32;51.25;99622.69;5034973;28;20030;-48
2023/10/26 10:20:29;;;;;;;3.10;1.67;;;;;;;20.36;51.27;99621.22;5039378;28;20030;-48
2023/10/26 10:22:58;;;;;;;1.80;1.60;;;;;;;20.34;51.17;99617.06;5034196;28;20072;-49
2023/10/26 10:25:25;;;;;;;;;;;;;;;20.40;51.20;99630.56;5030924;28;20033;-48
2023/10/26 10:27:50;;;;;;;1.83;1.73;;;;;;;20.43;51.46;99627.47;5033825;28;19921;-48
2023/10/26 10:30:19;;;;;;;1.75;1.65;;;;;;;20.45;51.19;99632.63;5032133;28;20176;-47
2023/10/26 10:32:47;;;;;;;2.17;1.88;;;;;;;20.47;51.27;99626.00;5031332;28;20024;-48
2023/10/26 10:35:21;;;;;;;1.95;1.77;;;;;;;20.50;51.21;99619.34;5035641;28;20056;-48
2023/10/26 10:38:15;;;;;;;1.70;1.52;;;;;;;20.53;51.08;99621.66;5033700;28;20037;-49
2023/10/26 10:40:59;;;;;;;2.80;1.65;;;;;;;20.57;51.07;99628.28;5036552;28;20041;-48
2023/10/26 10:43:40;;;;;;;2.17;1.70;;;;;;;20.60;51.02;99616.22;5038818;28;20025;-48
2023/10/26 10:46:19;;;;;;;2.72;2.30;;;;;;;20.63;50.85;99615.81;5038049;28;20136;-47
2023/10/26 10:48:58;;;;;;;2.30;1.80;;;;;;;20.64;50.93;99620.97;5032020;28;20485;-48
2023/10/26 10:51:31;;;;;;;2.03;1.75;;;;;;;20.68;50.71;99619.50;5029856;28;20029;-48
2023/10/26 10:53:56;;;;;;;2.17;1.70;;;;;;;20.71;50.76;99611.00;5011549;28;20029;-48
2023/10/26 10:56:23;;;;;;;2.20;1.65;;;;;;;20.59;50.44;99582.16;5029373;28;20033;-51
2023/10/26 10:58:48;;;;;;;2.38;1.95;;;;;;;20.78;50.50;99605.59;5031875;28;20071;-50
2023/10/26 11:01:19;;;;;;;2.22;1.70;;;;;;;20.80;50.79;99605.38;5029596;28;20033;-49
2023/10/26 11:03:45;;;;;;;2.88;1.70;;;;;;;20.84;50.39;99607.44;5032071;28;20048;-50
2023/10/26 11:06:17;;;;;;;2.33;2.00;;;;;;;20.88;50.59;99605.97;5033526;28;20041;-49
2023/10/26 11:08:42;;;;;;;1.85;1.70;;;;;;;20.90;50.46;99593.09;5029382;28;20129;-51
2023/10/26 11:11:07;;;;;;;2.30;1.85;;;;;;;20.94;50.61;99588.91;5027530;28;20508;-48
2023/10/26 11:13:33;;;;;;;1.70;1.60;;;;;;;21.01;50.41;99583.47;5031713;28;20057;-47
2023/10/26 11:15:58;;;;;;;1.70;1.60;;;;;;;21.08;50.36;99583.44;5031337;28;20029;-48
2023/10/26 11:18:24;;;;;;;1.60;1.50;;;;;;;21.14;49.97;99571.75;5026356;28;20052;-47
2023/10/26 11:20:49;;;;;;;1.60;1.50;;;;;;;21.20;49.96;99574.44;5018910;28;20025;-49
2023/10/26 11:23:18;;;;;;;2.58;1.52;;;;;;;21.30;49.80;99570.44;5027056;28;20025;-48
2023/10/26 11:25:44;;;;;;;2.20;1.63;;;;;;;21.38;49.51;99565.63;5032110;28;20109;-48
2023/10/26 11:28:10;;;;;;;2.00;1.80;;;;;;;21.39;49.64;99556.47;5032960;28;20319;-49
2023/10/26 11:30:46;;;;;;;2.05;1.85;;;;;;;21.40;49.42;99543.78;5013373;28;20053;-49